Time;durP1;ratioP1;P1;durP2;ratioP2;P2;SDS_P1;SDS_P2;PMS_P1;PMS_P2;Temp;Humidity;BMP_temperature;BMP_pressure;BME280_temperature;BME280_humidity;BME280_pressure;Samples;Min_cycle;Max_cycle;Signal;HPM_P1;HPM_P2
2022/03/27 00:00:38;;;;;;;29.60;16.48;;;20.40;99.90;;;;;;5031402;28;20075;-52
2022/03/27 00:03:06;;;;;;;25.10;16.57;;;20.30;99.90;;;;;;5032560;28;20044;-53
2022/03/27 00:05:32;;;;;;;24.65;16.50;;;20.40;99.90;;;;;;5031401;28;20297;-53
2022/03/27 00:07:58;;;;;;;29.75;17.25;;;20.40;99.90;;;;;;5032518;28;20528;-52
2022/03/27 00:10:24;;;;;;;27.15;16.33;;;20.30;99.90;;;;;;5032488;28;20075;-53
2022/03/27 00:12:50;;;;;;;24.85;16.90;;;20.30;99.90;;;;;;5031208;28;20026;-52
2022/03/27 00:15:16;;;;;;;23.90;16.17;;;20.40;99.90;;;;;;5032347;28;20075;-53
2022/03/27 00:17:42;;;;;;;28.35;16.23;;;20.40;99.90;;;;;;5032610;28;20083;-52
2022/03/27 00:20:08;;;;;;;22.23;16.00;;;20.30;99.90;;;;;;5032293;28;20102;-52
2022/03/27 00:22:37;;;;;;;24.17;15.23;;;20.30;99.90;;;;;;5032248;28;20025;-52
2022/03/27 00:25:07;;;;;;;24.45;15.38;;;20.30;99.90;;;;;;5032147;28;20053;-52
2022/03/27 00:27:34;;;;;;;20.90;15.02;;;20.30;99.90;;;;;;5032180;28;20119;-52
2022/03/27 00:30:00;;;;;;;23.17;15.23;;;20.30;99.90;;;;;;5031956;28;20401;-52
2022/03/27 00:32:26;;;;;;;28.75;16.88;;;20.30;99.90;;;;;;5031954;28;20262;-52
2022/03/27 00:34:53;;;;;;;25.27;15.27;;;20.30;99.90;;;;;;5031965;28;20033;-52
2022/03/27 00:37:19;;;;;;;23.43;16.17;;;20.30;99.90;;;;;;5032162;28;20474;-51
2022/03/27 00:39:45;;;;;;;23.92;15.60;;;20.30;99.90;;;;;;5031574;28;20476;-52
2022/03/27 00:42:11;;;;;;;25.35;15.70;;;20.30;99.90;;;;;;5032218;28;20029;-52
2022/03/27 00:44:38;;;;;;;26.10;15.75;;;20.30;99.90;;;;;;5031907;28;20465;-52
2022/03/27 00:47:05;;;;;;;18.25;13.77;;;20.30;99.90;;;;;;5031781;28;20025;-52
2022/03/27 00:49:32;;;;;;;24.23;16.27;;;20.30;99.90;;;;;;5032036;28;20378;-52
2022/03/27 00:51:58;;;;;;;22.33;15.20;;;20.30;99.90;;;;;;5031749;28;20408;-52
2022/03/27 00:54:24;;;;;;;23.88;15.02;;;20.30;99.90;;;;;;5031690;28;20112;-52
2022/03/27 00:56:50;;;;;;;23.60;15.65;;;20.30;99.90;;;;;;5031574;28;20076;-52
2022/03/27 00:59:17;;;;;;;25.88;14.95;;;20.30;99.90;;;;;;5044155;22;20022;-42
2022/03/27 01:01:44;;;;;;;23.17;15.00;;;20.30;99.90;;;;;;4991781;28;20041;-42
2022/03/27 01:04:10;;;;;;;22.08;14.00;;;20.30;99.90;;;;;;4992229;28;20482;-43
2022/03/27 01:06:43;;;;;;;23.73;14.65;;;20.30;99.90;;;;;;4992376;28;20027;-42
2022/03/27 01:09:35;;;;;;;22.48;14.23;;;20.30;99.90;;;;;;4992178;28;20030;-42
2022/03/27 01:12:21;;;;;;;26.13;14.23;;;20.30;99.90;;;;;;4992247;28;20038;-42
2022/03/27 01:14:47;;;;;;;21.55;13.98;;;20.30;99.90;;;;;;4992226;28;20486;-43
2022/03/27 01:17:23;;;;;;;21.63;14.30;;;20.30;99.90;;;;;;4992312;28;20434;-42
2022/03/27 01:19:55;;;;;;;22.50;14.02;;;20.30;99.90;;;;;;5006990;28;20382;-43
2022/03/27 01:22:23;;;;;;;22.27;13.48;;;20.30;99.90;;;;;;4992231;28;20536;-44
2022/03/27 01:24:51;;;;;;;23.55;14.23;;;20.30;99.90;;;;;;4992046;28;20439;-42
2022/03/27 01:27:17;;;;;;;20.70;13.15;;;20.30;99.90;;;;;;4992196;28;20026;-43
2022/03/27 01:29:43;;;;;;;19.35;13.40;;;20.30;99.90;;;;;;4991999;28;20038;-43
2022/03/27 01:32:11;;;;;;;20.35;12.85;;;20.30;99.90;;;;;;4991843;28;20434;-43
2022/03/27 01:34:37;;;;;;;19.08;13.02;;;20.30;99.90;;;;;;4991863;28;20495;-44
2022/03/27 01:37:07;;;;;;;18.20;12.20;;;20.20;99.90;;;;;;4991833;28;20034;-43
2022/03/27 01:39:32;;;;;;;20.20;12.32;;;20.20;99.90;;;;;;4992069;28;20023;-42
2022/03/27 01:41:58;;;;;;;24.95;14.30;;;20.20;99.90;;;;;;5006984;28;20073;-42
2022/03/27 01:44:24;;;;;;;18.60;12.55;;;20.20;99.90;;;;;;4991764;28;20105;-42
2022/03/27 01:46:50;;;;;;;20.42;13.00;;;20.30;99.90;;;;;;4991771;28;20103;-43
2022/03/27 01:49:17;;;;;;;19.35;13.10;;;20.20;99.90;;;;;;4992064;28;20022;-43
2022/03/27 01:51:43;;;;;;;19.52;12.23;;;20.20;99.90;;;;;;4992865;28;20045;-42
2022/03/27 01:54:10;;;;;;;20.85;13.32;;;20.20;99.90;;;;;;4995749;28;20516;-43
2022/03/27 01:56:39;;;;;;;18.23;12.50;;;20.20;99.90;;;;;;4995824;28;20429;-42
2022/03/27 02:01:38;;;;;;;21.00;12.73;;;20.20;99.90;;;;;;5033618;28;20057;-52
2022/03/27 02:04:06;;;;;;;20.52;12.85;;;20.20;99.90;;;;;;5034802;28;20044;-52
2022/03/27 02:06:32;;;;;;;19.95;12.50;;;20.20;99.90;;;;;;5034790;28;20049;-52
2022/03/27 02:08:59;;;;;;;21.70;12.55;;;20.20;99.90;;;;;;5034710;28;20033;-52
2022/03/27 02:11:26;;;;;;;16.70;11.80;;;20.20;99.90;;;;;;5034820;28;20042;-52
2022/03/27 02:13:52;;;;;;;19.38;11.98;;;20.20;99.90;;;;;;5034809;28;20025;-52
2022/03/27 02:16:18;;;;;;;18.48;12.15;;;20.20;99.90;;;;;;5034884;28;20393;-52
2022/03/27 02:18:44;;;;;;;20.30;12.30;;;20.20;99.90;;;;;;5034516;28;20047;-52
2022/03/27 02:21:11;;;;;;;19.05;11.73;;;20.20;99.90;;;;;;5034479;28;20040;-52
2022/03/27 02:23:37;;;;;;;17.20;11.00;;;20.20;99.90;;;;;;5034601;28;20029;-52
2022/03/27 02:26:05;;;;;;;17.27;11.70;;;20.10;99.90;;;;;;5034447;28;20021;-52
2022/03/27 02:28:31;;;;;;;19.77;11.70;;;20.20;99.90;;;;;;5034517;28;20152;-52
2022/03/27 02:30:57;;;;;;;18.70;11.00;;;20.20;99.90;;;;;;5034440;28;20056;-52
2022/03/27 02:33:24;;;;;;;23.70;11.93;;;20.20;99.90;;;;;;5034337;28;20025;-52
2022/03/27 02:35:50;;;;;;;17.00;11.35;;;20.20;99.90;;;;;;5034570;28;20034;-52
2022/03/27 02:38:16;;;;;;;17.77;11.32;;;20.20;99.90;;;;;;5034279;28;20079;-52
2022/03/27 02:40:43;;;;;;;21.40;11.52;;;20.20;99.90;;;;;;5034111;28;20033;-52
2022/03/27 02:43:09;;;;;;;18.92;11.45;;;20.20;99.90;;;;;;5034190;28;20025;-52
2022/03/27 02:45:35;;;;;;;17.92;11.63;;;20.10;99.90;;;;;;5034179;28;20034;-52
2022/03/27 02:48:01;;;;;;;17.58;10.90;;;20.10;99.90;;;;;;5034148;28;20032;-52
2022/03/27 02:50:29;;;;;;;16.35;11.27;;;20.10;99.90;;;;;;5032755;28;20452;-52
2022/03/27 02:52:55;;;;;;;15.75;10.60;;;20.20;99.90;;;;;;5033754;28;20093;-52
2022/03/27 02:55:22;;;;;;;16.65;10.75;;;20.10;99.90;;;;;;5034169;28;20103;-52
2022/03/27 02:57:49;;;;;;;18.42;10.93;;;20.20;99.90;;;;;;5034014;28;20033;-52
2022/03/27 03:00:15;;;;;;;14.95;10.77;;;20.20;99.90;;;;;;5034366;28;20160;-52
2022/03/27 03:02:41;;;;;;;16.67;11.05;;;20.20;99.90;;;;;;5033251;28;20029;-53
2022/03/27 03:05:08;;;;;;;17.65;11.23;;;20.20;99.90;;;;;;5033857;28;20128;-52
2022/03/27 03:07:34;;;;;;;17.77;11.15;;;20.20;99.90;;;;;;5033682;28;20108;-52
2022/03/27 03:10:02;;;;;;;18.70;10.02;;;20.20;99.90;;;;;;5033553;28;20505;-52
2022/03/27 03:12:28;;;;;;;16.23;10.68;;;20.10;99.90;;;;;;5033713;28;20033;-52
2022/03/27 03:14:56;;;;;;;14.77;10.25;;;20.10;99.90;;;;;;5033499;28;20033;-52
2022/03/27 03:17:25;;;;;;;;;;;20.10;99.90;;;;;;5032969;28;20394;-52
2022/03/27 03:19:52;;;;;;;15.82;10.90;;;20.10;99.90;;;;;;5033829;28;19905;-52
2022/03/27 03:22:18;;;;;;;20.60;10.48;;;20.20;99.90;;;;;;5033403;28;20447;-52
2022/03/27 03:24:44;;;;;;;15.60;10.48;;;20.20;99.90;;;;;;5033503;28;20049;-52
2022/03/27 03:27:10;;;;;;;15.73;10.05;;;20.20;99.90;;;;;;5033361;28;20493;-52
2022/03/27 03:29:36;;;;;;;17.27;10.65;;;20.20;99.90;;;;;;5033204;28;20116;-52
2022/03/27 03:32:02;;;;;;;17.90;10.77;;;20.20;99.90;;;;;;5033173;28;20037;-52
2022/03/27 03:34:28;;;;;;;19.08;10.90;;;20.20;99.90;;;;;;5033149;28;20045;-52
2022/03/27 03:36:54;;;;;;;15.90;10.55;;;20.20;99.90;;;;;;5033364;28;20436;-52
2022/03/27 03:39:19;;;;;;;16.15;10.63;;;20.20;99.90;;;;;;5033288;28;20381;-52
2022/03/27 03:41:45;;;;;;;19.80;10.45;;;20.20;99.90;;;;;;5031748;28;20026;-52
2022/03/27 03:44:11;;;;;;;17.35;10.02;;;20.20;99.90;;;;;;5032971;28;20045;-52
2022/03/27 03:46:37;;;;;;;16.00;10.10;;;20.20;99.90;;;;;;5032954;28;20022;-56
2022/03/27 03:49:06;;;;;;;15.93;10.93;;;20.20;99.90;;;;;;5033058;28;20087;-52
2022/03/27 03:51:36;;;;;;;17.27;11.07;;;20.10;99.90;;;;;;5032777;28;20045;-52
2022/03/27 03:54:06;;;;;;;19.33;10.32;;;20.20;99.90;;;;;;5032931;28;20018;-53
2022/03/27 03:56:32;;;;;;;15.10;9.30;;;20.20;99.90;;;;;;5032748;28;20033;-52
2022/03/27 03:59:02;;;;;;;15.75;10.50;;;20.10;99.90;;;;;;5032923;28;20032;-52
2022/03/27 04:01:28;;;;;;;17.08;11.00;;;20.20;99.90;;;;;;5044473;22;20060;-42
2022/03/27 04:03:54;;;;;;;16.35;10.27;;;20.20;99.90;;;;;;5032915;28;20041;-41
2022/03/27 04:06:20;;;;;;;14.52;10.13;;;20.20;99.90;;;;;;5032667;28;20025;-42
2022/03/27 04:08:46;;;;;;;14.55;9.98;;;20.20;99.90;;;;;;5032526;28;20025;-42
2022/03/27 04:11:16;;;;;;;15.32;10.05;;;20.20;99.90;;;;;;5032480;28;20033;-42
2022/03/27 04:13:45;;;;;;;15.25;10.15;;;20.20;99.90;;;;;;5031942;28;20477;-42
2022/03/27 04:16:14;;;;;;;16.38;11.20;;;20.20;99.90;;;;;;5030800;28;20504;-42
2022/03/27 04:18:40;;;;;;;15.13;9.52;;;20.20;99.90;;;;;;5032274;28;20355;-42
2022/03/27 04:21:07;;;;;;;15.60;9.18;;;20.20;99.90;;;;;;5032244;28;20022;-42
2022/03/27 04:23:33;;;;;;;17.00;10.00;;;20.20;99.90;;;;;;5032404;28;20458;-42
2022/03/27 04:25:59;;;;;;;16.05;9.70;;;20.10;99.90;;;;;;5032117;28;20075;-43
2022/03/27 04:28:25;;;;;;;14.45;9.65;;;20.10;99.90;;;;;;5032588;28;20521;-42
2022/03/27 04:30:51;;;;;;;16.67;9.90;;;20.20;99.90;;;;;;5031975;28;20079;-42
2022/03/27 04:33:17;;;;;;;15.30;9.48;;;20.10;99.90;;;;;;5032295;28;20029;-42
2022/03/27 04:35:43;;;;;;;17.05;10.48;;;20.20;99.90;;;;;;5032114;28;20083;-42
2022/03/27 04:38:09;;;;;;;16.85;10.02;;;20.20;99.90;;;;;;5031921;28;20540;-42
2022/03/27 04:40:36;;;;;;;18.08;10.10;;;20.10;99.90;;;;;;5031920;28;20078;-42
2022/03/27 04:43:02;;;;;;;16.85;10.02;;;20.20;99.90;;;;;;5031782;28;20101;-42
2022/03/27 04:45:28;;;;;;;14.98;9.50;;;20.10;99.90;;;;;;5031962;28;20540;-42
2022/03/27 04:47:53;;;;;;;15.95;9.73;;;20.20;99.90;;;;;;5032177;28;20117;-42
2022/03/27 04:50:19;;;;;;;14.38;9.68;;;20.20;99.90;;;;;;5031722;28;20120;-42
2022/03/27 04:52:45;;;;;;;15.90;9.65;;;20.20;99.90;;;;;;5031790;28;20508;-42
2022/03/27 04:55:11;;;;;;;16.98;10.25;;;20.20;99.90;;;;;;5031712;28;20595;-42
2022/03/27 04:57:38;;;;;;;14.85;9.68;;;20.10;99.90;;;;;;5031614;28;20032;-42
2022/03/27 05:00:12;;;;;;;15.38;9.23;;;20.20;99.90;;;;;;5031511;28;20058;-42
2022/03/27 05:02:38;;;;;;;18.20;9.18;;;20.20;99.90;;;;;;5031401;28;20105;-42
2022/03/27 05:05:05;;;;;;;14.38;9.52;;;20.20;99.90;;;;;;5031550;28;20021;-42
2022/03/27 05:07:31;;;;;;;14.75;10.43;;;20.20;99.90;;;;;;5031535;28;20032;-43
2022/03/27 05:09:57;;;;;;;15.23;9.88;;;20.20;99.90;;;;;;5031598;28;20108;-42
2022/03/27 05:12:23;;;;;;;14.60;8.93;;;20.20;99.90;;;;;;5031480;28;21218;-42
2022/03/27 05:14:48;;;;;;;17.35;9.32;;;20.20;99.90;;;;;;5031480;28;20542;-42
2022/03/27 05:17:14;;;;;;;17.45;9.75;;;20.10;99.90;;;;;;5031368;28;20106;-42
2022/03/27 05:19:41;;;;;;;15.48;9.55;;;20.20;99.90;;;;;;5031497;28;20018;-42
2022/03/27 05:22:07;;;;;;;15.02;9.55;;;20.10;99.90;;;;;;5031362;28;20029;-42
2022/03/27 05:24:34;;;;;;;15.93;9.50;;;20.10;99.90;;;;;;5031425;28;20029;-42
2022/03/27 05:27:00;;;;;;;16.48;9.45;;;20.10;99.90;;;;;;5031324;28;20032;-42
2022/03/27 05:29:25;;;;;;;13.52;8.45;;;20.10;99.90;;;;;;5031402;28;20029;-42
2022/03/27 05:31:52;;;;;;;17.48;9.77;;;20.10;99.90;;;;;;5031085;28;20038;-42
2022/03/27 05:34:18;;;;;;;17.80;9.73;;;20.10;99.90;;;;;;5031156;28;20389;-41
2022/03/27 05:36:45;;;;;;;16.70;9.40;;;20.10;99.90;;;;;;5031263;28;20022;-42
2022/03/27 05:39:12;;;;;;;15.63;8.40;;;20.10;99.90;;;;;;5031249;28;20021;-42
2022/03/27 05:41:38;;;;;;;15.82;9.25;;;20.10;99.90;;;;;;5029843;28;20029;-42
2022/03/27 05:44:04;;;;;;;15.23;9.18;;;20.10;99.90;;;;;;5031114;28;20112;-42
2022/03/27 05:46:30;;;;;;;15.60;9.13;;;20.10;99.90;;;;;;5031357;28;20469;-42
2022/03/27 05:48:55;;;;;;;13.15;8.57;;;20.10;99.90;;;;;;5031292;28;20072;-42
2022/03/27 05:51:21;;;;;;;17.35;8.98;;;20.10;99.90;;;;;;5031104;28;20041;-42
2022/03/27 05:53:47;;;;;;;18.45;10.30;;;20.10;99.90;;;;;;5031063;28;20029;-42
2022/03/27 05:56:13;;;;;;;19.02;10.13;;;20.10;99.90;;;;;;5030993;28;20037;-42
2022/03/27 05:58:38;;;;;;;18.05;9.77;;;20.10;99.90;;;;;;5030978;28;20034;-42
2022/03/27 06:01:07;;;;;;;17.70;9.18;;;20.10;99.90;;;;;;5030891;28;20045;-42
2022/03/27 06:03:33;;;;;;;15.73;8.40;;;20.10;99.90;;;;;;5031069;28;20029;-42
2022/03/27 06:05:59;;;;;;;16.45;8.90;;;20.10;99.90;;;;;;5031163;28;20469;-41
2022/03/27 06:08:25;;;;;;;14.77;8.23;;;20.10;99.90;;;;;;5030882;28;20113;-42
2022/03/27 06:10:51;;;;;;;17.13;8.52;;;20.10;99.90;;;;;;5030770;28;20052;-43
2022/03/27 06:13:17;;;;;;;16.52;8.95;;;20.10;99.90;;;;;;5031209;28;20013;-42
2022/03/27 06:15:43;;;;;;;17.00;9.80;;;20.10;99.90;;;;;;5030800;28;20037;-42
2022/03/27 06:18:10;;;;;;;15.07;9.23;;;20.10;99.90;;;;;;5030840;28;20022;-42
2022/03/27 06:20:37;;;;;;;13.00;8.00;;;20.10;99.90;;;;;;5030889;28;20425;-42
2022/03/27 06:23:03;;;;;;;18.40;9.47;;;20.10;99.90;;;;;;5029594;28;20022;-43
2022/03/27 06:25:30;;;;;;;13.20;8.68;;;20.10;99.90;;;;;;5031125;28;20484;-42
2022/03/27 06:27:57;;;;;;;16.93;9.60;;;20.10;99.90;;;;;;5030841;28;20067;-42
2022/03/27 06:30:26;;;;;;;17.95;9.40;;;20.10;99.90;;;;;;5030626;28;20283;-43
2022/03/27 06:32:53;;;;;;;21.95;8.98;;;20.10;99.90;;;;;;5030686;28;20025;-43
2022/03/27 06:35:20;;;;;;;15.07;8.55;;;20.10;99.90;;;;;;5030712;28;20021;-43
2022/03/27 06:37:46;;;;;;;16.88;8.40;;;20.10;99.90;;;;;;5031775;28;20029;-42
2022/03/27 06:40:14;;;;;;;13.70;8.48;;;20.10;99.90;;;;;;5034279;28;20156;-42
2022/03/27 06:42:40;;;;;;;;;;;20.10;99.90;;;;;;5034820;28;20021;-43
2022/03/27 06:45:07;;;;;;;17.23;9.63;;;20.10;99.90;;;;;;5032988;28;19998;-42
2022/03/27 06:47:33;;;;;;;14.98;8.10;;;20.10;99.90;;;;;;5034315;28;20026;-42
2022/03/27 06:50:01;;;;;;;12.55;7.65;;;20.10;99.90;;;;;;5032826;28;20393;-42
2022/03/27 06:52:28;;;;;;;16.83;7.70;;;20.10;99.90;;;;;;5034100;28;20199;-43
2022/03/27 06:54:54;;;;;;;13.05;7.97;;;20.10;99.90;;;;;;5032610;28;20478;-42
2022/03/27 06:57:21;;;;;;;17.73;9.23;;;20.10;99.90;;;;;;5034153;28;20087;-43
2022/03/27 07:05:17;;;;;;;12.63;7.05;;;20.10;99.90;;;;;;5034217;28;20036;-42
2022/03/27 07:07:43;;;;;;;14.80;8.07;;;20.10;99.90;;;;;;5033715;28;20503;-42
2022/03/27 07:10:10;;;;;;;11.35;7.88;;;20.10;99.90;;;;;;5033682;28;20105;-43
2022/03/27 07:12:36;;;;;;;14.63;8.48;;;20.00;99.90;;;;;;5033741;28;20021;-42
2022/03/27 07:15:02;;;;;;;11.90;7.45;;;20.10;99.90;;;;;;5033768;28;20025;-42
2022/03/27 07:17:28;;;;;;;14.85;8.13;;;20.10;99.90;;;;;;5033547;28;20038;-42
2022/03/27 07:19:54;;;;;;;15.90;9.27;;;20.10;99.90;;;;;;5033500;28;20026;-42
2022/03/27 07:22:20;;;;;;;14.48;8.02;;;20.10;99.90;;;;;;5033522;28;20030;-43
2022/03/27 07:24:46;;;;;;;14.95;8.68;;;20.10;99.90;;;;;;5033317;28;20049;-43
2022/03/27 07:27:12;;;;;;;13.50;7.90;;;20.10;99.90;;;;;;5033389;28;20462;-42
2022/03/27 07:29:38;;;;;;;14.52;7.78;;;20.10;99.90;;;;;;5033411;28;20029;-42
2022/03/27 07:32:05;;;;;;;12.45;7.75;;;20.10;99.90;;;;;;5033361;28;20120;-42
2022/03/27 07:34:33;;;;;;;14.75;7.70;;;20.10;99.90;;;;;;5033327;28;20029;-42
2022/03/27 07:36:58;;;;;;;13.02;8.02;;;20.10;99.90;;;;;;5033404;28;20083;-42
2022/03/27 07:39:24;;;;;;;14.73;8.73;;;20.20;99.90;;;;;;5032070;28;20033;-43
2022/03/27 07:41:50;;;;;;;16.67;7.93;;;20.20;99.90;;;;;;5033226;28;20021;-42
2022/03/27 07:44:16;;;;;;;15.88;7.35;;;20.20;99.90;;;;;;5033163;28;20263;-43
2022/03/27 07:46:42;;;;;;;14.45;7.18;;;20.20;99.90;;;;;;5032986;28;20029;-42
2022/03/27 07:49:08;;;;;;;12.55;7.28;;;20.20;99.90;;;;;;5032981;28;20064;-43
2022/03/27 07:51:36;;;;;;;16.70;8.80;;;20.30;99.90;;;;;;5015343;28;20449;-43
2022/03/27 07:54:03;;;;;;;14.95;8.65;;;20.30;99.90;;;;;;5031913;28;20456;-43
2022/03/27 07:56:32;;;;;;;16.67;7.80;;;20.20;99.90;;;;;;5032867;28;20033;-43
2022/03/27 07:58:57;;;;;;;18.45;7.53;;;20.20;99.90;;;;;;5032802;28;20141;-43
2022/03/27 08:01:24;;;;;;;12.90;8.02;;;20.20;99.90;;;;;;5032474;28;20041;-43
2022/03/27 08:03:51;;;;;;;15.20;7.63;;;20.20;99.90;;;;;;5032594;28;20096;-43
2022/03/27 08:06:17;;;;;;;15.02;7.70;;;20.20;99.90;;;;;;5032801;28;20030;-42
2022/03/27 08:08:43;;;;;;;14.27;8.35;;;20.20;99.90;;;;;;5032628;28;20037;-43
2022/03/27 08:11:09;;;;;;;15.93;8.77;;;20.30;99.90;;;;;;5032397;28;20121;-42
2022/03/27 08:13:36;;;;;;;15.13;7.97;;;20.20;99.90;;;;;;5032579;28;20017;-43
2022/03/27 08:16:02;;;;;;;11.63;6.93;;;20.20;99.90;;;;;;5032483;28;20031;-43
2022/03/27 08:18:27;;;;;;;13.70;7.65;;;20.20;99.90;;;;;;5032328;28;20128;-43
2022/03/27 08:20:53;;;;;;;13.57;7.45;;;20.20;99.90;;;;;;5032276;28;20043;-42
2022/03/27 08:23:19;;;;;;;15.95;8.15;;;20.20;99.90;;;;;;5032376;28;20103;-42
2022/03/27 08:28:29;;;;;;;15.35;7.82;;;20.20;99.90;;;;;;5032402;28;20091;-42
2022/03/27 08:30:55;;;;;;;12.25;7.90;;;20.20;99.90;;;;;;5031915;28;20033;-45
2022/03/27 08:33:20;;;;;;;14.73;8.85;;;20.20;99.90;;;;;;5032099;28;20025;-42
2022/03/27 08:35:47;;;;;;;18.90;7.65;;;20.20;99.90;;;;;;5031955;28;20026;-43
2022/03/27 08:38:14;;;;;;;20.27;8.00;;;20.20;99.90;;;;;;5032033;28;20036;-42
2022/03/27 08:40:45;;;;;;;13.32;7.65;;;20.20;99.90;;;;;;5032114;28;20053;-41
2022/03/27 08:43:16;;;;;;;13.63;7.22;;;20.20;99.90;;;;;;5032000;28;20029;-42
2022/03/27 08:45:43;;;;;;;14.20;7.70;;;20.20;99.90;;;;;;5031828;28;20041;-42
2022/03/27 08:48:10;;;;;;;13.68;7.55;;;20.20;99.90;;;;;;5030879;28;20561;-42
2022/03/27 08:50:58;;;;;;;13.02;7.43;;;20.30;99.90;;;;;;5032015;28;20397;-43
2022/03/27 08:53:30;;;;;;;13.02;8.10;;;20.30;99.90;;;;;;5031670;28;20037;-43
2022/03/27 08:56:03;;;;;;;16.27;8.20;;;20.20;99.90;;;;;;5031561;28;20033;-43
2022/03/27 08:58:35;;;;;;;14.65;7.03;;;20.20;99.90;;;;;;5031444;28;20108;-43
2022/03/27 09:01:06;;;;;;;11.85;6.55;;;20.30;99.90;;;;;;5031071;28;20160;-42
2022/03/27 09:03:32;;;;;;;16.70;8.48;;;20.30;99.90;;;;;;5030341;28;20037;-42
2022/03/27 09:06:01;;;;;;;16.80;7.93;;;20.30;99.90;;;;;;5030437;28;20030;-42
2022/03/27 09:08:31;;;;;;;18.58;7.65;;;20.30;99.90;;;;;;5030415;28;20028;-43
2022/03/27 09:10:58;;;;;;;12.77;6.97;;;20.30;99.90;;;;;;5031459;28;20541;-42
2022/03/27 09:13:25;;;;;;;18.40;7.78;;;20.30;99.90;;;;;;5031704;28;20036;-42
2022/03/27 09:16:03;;;;;;;17.33;7.53;;;20.30;99.90;;;;;;5031494;28;20034;-42
2022/03/27 09:18:50;;;;;;;16.65;8.07;;;20.30;99.90;;;;;;5030467;28;20188;-42
2022/03/27 09:21:17;;;;;;;16.13;7.65;;;20.40;99.90;;;;;;5031453;28;20033;-42
2022/03/27 09:23:43;;;;;;;16.48;6.55;;;20.40;99.90;;;;;;5031532;28;20029;-42
2022/03/27 09:26:17;;;;;;;14.45;7.55;;;20.40;99.90;;;;;;5030280;28;20113;-42
2022/03/27 09:28:49;;;;;;;16.52;6.85;;;20.40;99.90;;;;;;5031462;28;20435;-43
2022/03/27 09:31:16;;;;;;;15.65;7.68;;;20.40;99.90;;;;;;5031334;28;20473;-43
2022/03/27 09:33:48;;;;;;;14.43;6.10;;;20.40;99.90;;;;;;5031476;28;20080;-42
2022/03/27 09:36:33;;;;;;;16.05;7.00;;;20.40;99.90;;;;;;5030995;28;20306;-43
2022/03/27 09:39:13;;;;;;;14.35;6.80;;;20.40;99.90;;;;;;5029968;28;20052;-42
2022/03/27 09:41:52;;;;;;;12.75;7.00;;;20.40;99.90;;;;;;5031428;28;20078;-43
2022/03/27 09:44:23;;;;;;;18.75;8.02;;;20.40;99.90;;;;;;5031174;28;20419;-42
2022/03/27 09:46:51;;;;;;;16.38;7.18;;;20.40;99.90;;;;;;5031501;28;20022;-43
2022/03/27 09:49:38;;;;;;;20.65;7.28;;;20.40;99.90;;;;;;5031099;28;20489;-43
2022/03/27 09:52:11;;;;;;;15.95;8.30;;;20.40;99.90;;;;;;5030428;28;20057;-43
2022/03/27 09:54:57;;;;;;;22.85;10.65;;;20.40;99.90;;;;;;5030941;28;20516;-43
2022/03/27 09:57:33;;;;;;;15.43;9.02;;;20.40;99.90;;;;;;5030950;28;20029;-44
2022/03/27 10:00:15;;;;;;;19.92;9.40;;;20.50;99.90;;;;;;5030888;28;20046;-43
2022/03/27 10:02:50;;;;;;;17.92;9.40;;;20.50;99.90;;;;;;5031058;28;20121;-43
2022/03/27 10:05:17;;;;;;;22.80;11.07;;;20.50;99.90;;;;;;5030857;28;20037;-43
2022/03/27 10:07:52;;;;;;;19.85;9.88;;;20.50;99.90;;;;;;5031195;28;20021;-43
2022/03/27 10:10:23;;;;;;;23.60;11.40;;;20.50;99.90;;;;;;5030870;28;20469;-43
2022/03/27 10:12:50;;;;;;;26.38;10.82;;;20.50;99.90;;;;;;5032050;28;20029;-43
2022/03/27 10:15:22;;;;;;;27.60;10.57;;;20.50;99.90;;;;;;5034725;28;20025;-43
2022/03/27 10:18:00;;;;;;;28.25;10.93;;;20.50;99.90;;;;;;5034687;28;20441;-44
2022/03/27 10:20:33;;;;;;;22.58;10.63;;;20.50;99.90;;;;;;5034486;28;20025;-44
2022/03/27 10:23:04;;;;;;;23.15;11.50;;;20.50;99.90;;;;;;5034406;28;20033;-43
2022/03/27 10:25:44;;;;;;;24.23;12.90;;;20.50;99.90;;;;;;5034377;28;20037;-43
2022/03/27 10:28:11;;;;;;;29.40;16.98;;;20.50;99.90;;;;;;5034502;28;20563;-44
2022/03/27 10:30:38;;;;;;;30.85;16.30;;;20.60;99.90;;;;;;5034435;28;20087;-44
2022/03/27 10:33:06;;;;;;;30.80;15.93;;;20.60;99.90;;;;;;5034214;28;20033;-44
2022/03/27 10:35:51;;;;;;;35.58;18.52;;;20.60;99.90;;;;;;5034212;28;20056;-43
2022/03/27 10:38:16;;;;;;;41.13;20.08;;;20.60;99.90;;;;;;5034142;28;20029;-44
2022/03/27 10:41:12;;;;;;;38.22;20.42;;;20.60;99.90;;;;;;5034316;28;20030;-44
2022/03/27 10:44:07;;;;;;;37.90;19.15;;;20.60;99.90;;;;;;5033943;28;20028;-44
2022/03/27 10:46:34;;;;;;;36.50;20.17;;;20.60;99.90;;;;;;5034007;28;20060;-44
2022/03/27 10:49:13;;;;;;;41.22;20.45;;;20.70;99.90;;;;;;5034035;28;20109;-44
2022/03/27 10:51:41;;;;;;;39.38;19.70;;;20.70;99.90;;;;;;5033861;28;20072;-44
2022/03/27 10:54:19;;;;;;;39.10;19.95;;;20.70;99.90;;;;;;5033957;28;20049;-44
2022/03/27 10:56:45;;;;;;;;;;;20.70;99.90;;;;;;5034483;28;20025;-43
2022/03/27 10:59:14;;;;;;;38.83;17.80;;;20.80;99.90;;;;;;5032705;28;20315;-43
2022/03/27 11:01:45;;;;;;;34.72;20.08;;;20.80;99.90;;;;;;5033748;28;20080;-43
2022/03/27 11:04:13;;;;;;;43.22;20.73;;;20.90;99.90;;;;;;5033794;28;20037;-43
2022/03/27 11:06:39;;;;;;;;;;;20.90;99.90;;;;;;5034335;28;20026;-43
2022/03/27 11:09:09;;;;;;;39.05;20.73;;;21.00;99.90;;;;;;5033610;28;19960;-44
2022/03/27 11:11:38;;;;;;;40.35;20.67;;;21.00;99.90;;;;;;5033572;28;20041;-43
2022/03/27 11:14:05;;;;;;;39.63;22.35;;;21.00;99.90;;;;;;5033416;28;20029;-43
2022/03/27 11:16:33;;;;;;;39.63;21.02;;;21.00;99.90;;;;;;5033633;28;20022;-42
2022/03/27 11:18:59;;;;;;;38.38;20.20;;;21.00;99.90;;;;;;5033354;28;20472;-43
2022/03/27 11:21:28;;;;;;;42.15;21.40;;;21.00;99.90;;;;;;5033577;28;20033;-43
2022/03/27 11:24:16;;;;;;;36.10;20.20;;;21.10;99.90;;;;;;5033658;28;20022;-43
2022/03/27 11:26:42;;;;;;;43.15;20.15;;;21.00;99.90;;;;;;5023877;28;20116;-43
2022/03/27 11:29:11;;;;;;;40.65;20.98;;;21.10;99.90;;;;;;5033404;28;20112;-43
2022/03/27 11:31:38;;;;;;;45.35;20.98;;;21.10;99.90;;;;;;5032854;28;20120;-43
2022/03/27 11:34:14;;;;;;;32.80;19.60;;;21.10;99.90;;;;;;5033069;28;20560;-43
2022/03/27 11:36:42;;;;;;;39.10;20.30;;;21.10;99.90;;;;;;5033240;28;20083;-43
2022/03/27 11:39:09;;;;;;;34.97;19.08;;;21.10;99.90;;;;;;5033226;28;20029;-43
2022/03/27 11:41:45;;;;;;;38.40;19.73;;;21.10;99.90;;;;;;5033184;28;20013;-43
2022/03/27 11:44:20;;;;;;;39.03;20.33;;;21.10;99.90;;;;;;5032959;28;20075;-43
2022/03/27 11:46:56;;;;;;;32.70;18.33;;;21.10;99.90;;;;;;5033114;28;20052;-43
2022/03/27 11:49:35;;;;;;;37.25;18.88;;;21.10;99.90;;;;;;5033154;28;20046;-43
2022/03/27 11:52:10;;;;;;;40.13;19.75;;;21.20;99.90;;;;;;5032761;28;20068;-43
2022/03/27 11:54:36;;;;;;;36.80;18.95;;;21.20;99.90;;;;;;5032580;28;20021;-43
2022/03/27 11:57:04;;;;;;;33.38;19.35;;;21.10;99.90;;;;;;5032642;28;20164;-42
2022/03/27 11:59:31;;;;;;;36.30;16.67;;;21.20;99.90;;;;;;5032812;28;20029;-42
2022/03/27 12:01:59;;;;;;;33.70;18.63;;;21.20;99.90;;;;;;5032543;28;20060;-42
2022/03/27 12:04:26;;;;;;;43.22;17.73;;;21.20;99.90;;;;;;5032616;28;20026;-42
2022/03/27 12:06:55;;;;;;;34.42;17.75;;;21.20;99.90;;;;;;5032644;28;20444;-42
2022/03/27 12:09:27;;;;;;;35.95;17.95;;;21.20;99.90;;;;;;5032422;28;20039;-44
2022/03/27 12:12:12;;;;;;;34.22;16.60;;;21.10;99.90;;;;;;5032354;28;20040;-43
2022/03/27 12:14:57;;;;;;;34.30;16.52;;;21.20;99.90;;;;;;5032620;28;20026;-44
2022/03/27 12:17:32;;;;;;;31.08;16.02;;;21.10;99.90;;;;;;5032539;28;20064;-43
2022/03/27 12:19:57;;;;;;;30.02;16.98;;;21.20;99.90;;;;;;5032529;28;20029;-43
2022/03/27 12:22:41;;;;;;;26.90;15.38;;;21.20;99.90;;;;;;5032273;28;20025;-44
2022/03/27 12:25:28;;;;;;;28.92;16.58;;;21.20;99.90;;;;;;5032432;28;20048;-44
2022/03/27 12:30:46;;;;;;;28.50;16.25;;;21.20;99.90;;;;;;5032209;28;20040;-44
2022/03/27 12:33:12;;;;;;;28.10;17.05;;;21.30;99.90;;;;;;5032156;28;20029;-44
2022/03/27 12:35:39;;;;;;;31.67;16.70;;;21.30;99.90;;;;;;5031360;28;20025;-44
2022/03/27 12:38:05;;;;;;;34.58;16.95;;;21.30;99.90;;;;;;5031952;28;20531;-44
2022/03/27 12:40:45;;;;;;;33.55;17.58;;;21.30;99.90;;;;;;5032102;28;20064;-44
2022/03/27 12:43:13;;;;;;;28.33;16.05;;;21.30;99.90;;;;;;5031906;28;20108;-44
2022/03/27 12:45:41;;;;;;;30.88;16.10;;;21.40;99.90;;;;;;5031854;28;20060;-44
2022/03/27 12:48:23;;;;;;;28.67;15.55;;;21.40;99.90;;;;;;5031670;28;20071;-44
2022/03/27 12:50:57;;;;;;;32.17;16.65;;;21.40;99.90;;;;;;5031842;28;20037;-44
2022/03/27 12:53:22;;;;;;;29.98;17.10;;;21.50;99.90;;;;;;5031795;28;20033;-44